嘉手納基地の過去48時間の天気

嘉手納基地 (Kadena ab)

現在時刻: 10/18 12:57 JST (10/18 03:57 UTC) 以下の時間は現地時間です。

過去48時間のMETAR気象情報
時間 風向 風速(m/s) 視程 気温(℃) 湿度(%) 気圧(hPa) 天気現象
18 11:56 7 10km以上 26.3 53 1015.5
18 10:56 6 10km以上 25.7 56 1016.1
18 09:56 北東 8 10km以上 25.3 60 1016.1
18 08:56 北北東 5 10km以上 24.4 66 1016
18 07:56 北北東 4 10km以上 23 69 1014.6
18 06:56 北東 3 10km以上 21.1 77 1014.2
18 05:56 北北東 3 10km以上 22 73 1013
18 04:56 北北東 4 10km以上 21.4 77 1013.1
18 04:01 東北東 3 10km以上 21 83 1013
18 02:56 4 10km以上 21.2 80 1013.1
18 00:56 北北東 2 10km以上 20.9 84 1013.5
17 23:56 北東 2 10km以上 20.9 84 1013.5
17 22:56 北東 3 10km以上 20.7 85 1013.1
17 22:16 北東 3 10km以上 21 83 1013.1
17 21:56 北東 3 10km以上 20.5 84 1013.5
17 20:56 北東 5 10km以上 21 84 1013.1
17 19:56 4 8050m 21.2 83 1012.8 弱い雨
17 18:56 北北東 4 10km以上 21.8 79 1011.8
17 18:46 北東 3 10km以上 22 78 1011.4
17 17:56 北東 4 10km以上 22.1 80 1011.1
17 16:56 北東 5 10km以上 22.6 79 1010.7
17 15:56 北北東 3 10km以上 22.6 80 1010.7
17 15:26 北東 4 10km以上 23 78 1010.4
17 15:06 北北東 4 10km以上 23 83 1010
17 14:56 北東 4 10km以上 22.7 84 1010.4
17 14:29 北東 3 4850m 22 88 1010.4 弱いしゅう雨
17 14:17 北東 4 8050m 22 88 1010.1 弱いしゅう雨
17 13:56 北北東 4 6450m 22.4 84 1011.1 弱いしゅう雨
17 12:56 北北東 3 10km以上 22.4 83 1011.8 弱いしゅう雨
17 12:45 3 10km以上 23 83 1011.8 弱いしゅう雨
17 11:56 北東 4 10km以上 22.7 84 1011.4 弱いしゅう雨
17 11:50 北東 4 10km以上 22 88 1011.8 弱いしゅう雨
17 11:39 東北東 3 6450m 22 83 1011.8 弱いしゅう雨
17 11:07 北北東 3 8050m 22 88 1012.4 弱いしゅう雨
17 10:56 北北東 3 4850m 22.3 84 1012.1 弱いしゅう雨
17 10:46 北北東 4 10km以上 22 83 1012.1 弱いしゅう雨
17 09:56 北東 2 10km以上 22.6 82 1012.4 弱い雨 もや
17 09:50 北東 3 10km以上 23 78 1012.1 弱い雨 もや
17 09:06 2 10km以上 22 83 1012.8 もや
17 08:56 北東 3 8050m 21.5 85 1012.1 弱いしゅう雨 もや
17 08:49 北東 3 8050m 21.5 85 1012.1 弱いしゅう雨 もや
17 08:20 北北東 3 4000m 22 83 1012.4 弱いしゅう雨 もや
17 08:12 2 4850m 22 83 1012.1 弱いしゅう雨
17 07:56 静穏 0 6450m 21.8 85 1012.1 弱いしゅう雨
17 07:34 北東 2 4850m 22 83 1012.1 弱いしゅう雨
17 07:21 北東 2 8050m 22 83 1011.7 弱いしゅう雨
17 06:56 東南東 2 10km以上 22 78 1012.1 弱いしゅう雨
17 06:47 南南東 2 2600m 22 88 1012.1
17 05:56 南東 2 10km以上 22.1 87 1011.1
17 04:56 北東 2 10km以上 22.1 91 1010.4
17 03:56 北北東 2 10km以上 21.9 92 1010.7
17 02:56 北東 2 10km以上 22.5 88 1011
17 01:56 静穏 0 10km以上 21.5 90 1011.4
17 00:56 1 10km以上 21.7 89 1011.7
16 23:56 北東 2 10km以上 22.3 90 1012.1
16 22:56 静穏 0 10km以上 23.1 86 1012
16 21:56 1 10km以上 22.8 87 1012.1
16 20:56 2 10km以上 23.6 84 1012.1
16 19:56 3 10km以上 24 84 1011.7
16 18:56 北北東 3 10km以上 24.4 83 1011.3
16 17:56 4 10km以上 24.4 83 1011.1
16 16:56 北北西 4 10km以上 25.8 76 1011
16 15:56 北北西 4 10km以上 26.4 74 1010.7
16 14:56 4 10km以上 27.2 68 1010.3
16 13:56 北北西 4 10km以上 26.5 76 1010.7
RODN 180256Z 01013G18KT 10SM CLR 26/16 A2997 RMK AO2A SLP155 T02630159 $
RODN 180156Z 01012KT 310V020 10SM FEW033 26/16 A2999 RMK AO2A SLP161 T02570162 $
RODN 180056Z 04015KT 10SM SCT030 BKN060 25/17 A2999 RMK AO2A SLP161 T02530170 $
RODN 172356Z 02009KT 10SM SCT065 24/18 A2999 RMK AO2A SLPNO 52023 T02440176
RODN 172256Z 02008KT 10SM OVC050 23/17 A2996 RMK AO2A SLP146 SLP ESTMD 52018
RODN 172156Z AUTO 04006KT 10SM SCT046 SCT140 21/17 A2993 RMK AO2 SLP142 T02110169 PWINO $
RODN 172056Z 02006KT 10SM BKN038 22/17 A2992 RMK AO2A SLPNO $
RODN 171956Z COR 02007KT 10SM 21/17 A2990 RMK AO2A SLP131 T02140172 RWY23 $ COR 2018
RODN 171901Z 06005KT 10SM FEW034 OVC044 21/18 A2990 RMK AO2A SLPNO $
RODN 171756Z 01007KT 10SM SCT044 21/18 A2990 RMK AO2A SLP131 T02120176 10216 20205 57005 $
RODN 171556Z 02004KT 10SM BKN043 21/18 A2991 RMK AO2A SLP135 T02090181 $
RODN 171456Z 05004KT 10SM OVC038 21/18 A2991 RMK AO2A SLP135 T02090181 402300205 50004 $
RODN 171356Z 05005KT 10SM OVC034 21/18 A2990 RMK AO2A SLP131 T02070181 $
RODN 171316Z 05005KT 10SM OVC033 21/18 A2990 RMK AO2A SLP131 $
RODN 171256Z 05006KT 10SM OVC028 21/18 A2991 RMK AO2A OVC V BKN SLP135 T02050177 $
RODN 171156Z COR 04009KT 10SM OVC034 21/18 A2990 RMK AO2A SLP131 60005 T02100182 10228 20210 52018 $ COR 1202
RODN 171056Z 01008KT 5SM -RA OVC031 21/18 A2989 RMK AO2A SLP128 T02120182 $
RODN 170956Z 03008KT 10SM BKN030 OVC046 22/18 A2986 RMK AO2A SLP118 T02180180 $
RODN 170946Z 04006KT 10SM BKN030 OVC045 22/18 A2985 RMK AO2A SLP114 $
RODN 170856Z 05008KT 10SM OVC029 22/19 A2984 RMK AO2A SLP111 T02210185 50009 $
RODN 170756Z 04009KT 10SM FEW022 OVC029 23/19 A2983 RMK AO2A SLP107 T02260187 $
RODN 170656Z 03006KT 10SM FEW011 OVC028 23/19 A2983 RMK AO2A SLP107 T02260190 $
RODN 170626Z 04008KT 10SM SCT009 OVC027 23/19 A2982 RMK AO2A CIG 009V027 SLP104 $
RODN 170606Z 03008KT 10SM BKN009 OVC025 23/20 A2981 RMK AO2A CIG 009V025 BKN V SCT SLP100 $
RODN 170556Z 04007KT 10SM SCT009 OVC025 23/20 A2982 RMK AO2A SLP104 T02270198 10228 20217 58012 $
RODN 170529Z 04005KT 3SM -SHRA SCT002 BKN016 OVC024 22/20 A2982 RMK AO2A CIG 015 RWY23 SLP104 $
RODN 170517Z 04008KT 5SM -SHRA SCT008 BKN014 OVC024 22/20 A2981 RMK AO2A CIG 009V014 PRESFR SLP101 $
RODN 170456Z 03007KT 4SM -SHRA FEW002 OVC009 22/20 A2984 RMK AO2A CIG 007 RWY23 SLP111 T02240195 $
RODN 170356Z 03005KT 8SM -SHRA BKN010 22/19 A2986 RMK AO2A CIG 009 RWY23 SLP118 T02240193 $
RODN 170345Z 01006KT 9SM -SHRA BKN010 OVC014 23/20 A2986 RMK AO2A CIG 009 RWY23 SLP118 $
RODN 170256Z 04007KT 8SM -SHRA SCT008 BKN031 OVC045 23/20 A2985 RMK AO2A SLP114 60025 T02270198 58009 $
RODN 170250Z 04008KT 7SM -SHRA FEW001 SCT008 BKN031 OVC045 22/20 A2986 RMK AO2A SLP118 $
RODN 170239Z 07005KT 4SM -SHRA FEW001 FEW007 SCT022 BKN030 OVC047 22/19 A2986 RMK SLP118 $
RODN 170207Z 02005KT 5SM -SHRA SCT007 BKN012 OVC023 22/20 A2988 RMK AO2A CIG 009V024 BKN V SCT SLP124 $
RODN 170156Z 02005KT 3SM -SHRA FEW010 BKN024 OVC033 22/19 A2987 RMK AO2A SLP121 P0001 T02230194 $
RODN 170146Z 02007KT 6SM -SHRA BKN024 OVC030 22/19 A2987 RMK AO2A CIG 024V029 SLP121 $
RODN 170056Z 05004KT 6SM -RA BR FEW010 BKN025 BKN030 OVC035 23/19 A2988 RMK AO2A BKN025 V OVC SLP124 T02260193 $
RODN 170050Z 05005KT 6SM -RA BR FEW010 BKN025 23/19 A2987 RMK SLP121 $
RODN 170006Z 01003KT 6SM BR FEW010 BKN021 OVC042 22/19 A2989 RMK AO2A BKN V SCT PRESRR SLP128 CIGS LWR E $
RODN 162356Z COR 05006KT 5SM -SHRA BR SCT010 BKN025 OVC042 22/19 A2987 RMK AO2A SLP121 CIGS LWR E 60073 T02150189 10227 20215 50006 $ COR 0002
RODN 162349Z 05006KT 5SM -SHRA BR SCT010 BKN025 OVC042 22/19 A2987 RMK AO2A SLP121 CIGS LWR E 60073 T02150189 10227 20215 50006 $
RODN 162320Z 02005KT 2 1/2SM -SHRA BR FEW025 OVC042 22/19 A2988 RMK AO2A VIS 2 1/4V4 VIS 2 RWY23 SLP124 $
RODN 162312Z 35004KT 3SM -SHRA FEW025 OVC042 22/19 A2987 RMK AO2A VIS 2 1/2 RWY23 SLP121 $
RODN 162256Z COR 00000KT 4SM -SHRA FEW001 SCT025 OVC050 22/19 A2987 RMK AO2A SLP121 T02180191 $ COR 2309
RODN 162234Z 05003KT 3SM -SHRA OVC042 22/19 A2987 RMK AO2A VIS 1 7/8 RWY23 SLP121 $
RODN 162221Z 04004KT 5SM -SHRA FEW017 OVC043 22/19 A2986 RMK AO2A SLP117 $
RODN 162156Z 12003KT 6SM -SHRA FEW001 OVC016 22/18 A2987 RMK AO2A LTG DSNT NE TSB35E45 CIG 016V021 CIG 012 RWY23 SLP121 60051 T02200180 $
RODN 162147Z 16004KT 1 5/8SM M SCT001 BKN021 OVC045 22/20 A2987 RMK AO2A VIS 3/4V1 5/8 VIS 1 1/8 RWY23 CIG 012 RWY23 SLP121 $
RODN 162056Z 14003KT 10SM BKN049 BKN065 BKN140 22/20 A2984 RMK AO2A SLP111 T02210198 53001 $
RODN 161956Z 04003KT 10SM SCT170 22/21 A2982 RMK AO2A SLP104 T02210205 $
RODN 161856Z 03003KT 8SM BKN038 22/21 A2983 RMK AO2A SLP107 T02190205 $
RODN 161756Z 05004KT 10SM BKN075 23/20 A2984 RMK AO2A SLP110 T02250204 10236 20212 57010 $
RODN 161656Z 00000KT 10SM BKN150 22/20 A2985 RMK AO2A SLP114 T02150198 $
RODN 161556Z 01002KT 10SM FEW150 22/20 A2986 RMK AO2A SLP117 T02170198 $
RODN 161456Z 04003KT 10SM BKN120 22/21 A2987 RMK AO2A SLP121 T02230206 402760214 57002 $
RODN 161356Z 00000KT 10SM FEW150 23/21 A2987 RMK AO2A SLP120 T02310206 $
RODN 161256Z 01002KT 10SM CLR 23/21 A2987 RMK AO2A SLP121 T02280205 $
RODN 161156Z 36004KT 10SM SCT140 24/21 A2987 RMK AO2A SLP121 60000 T02360207 10274 20235 52010 $
RODN 161056Z 01005KT 10SM SCT170 24/21 A2986 RMK AO2A SLP117 T02400211 $
RODN 160956Z COR 03005KT 10SM SCT045 24/21 A2985 RMK AO2A SLP113 T02440213 $ COR 1015
RODN 160856Z 36007KT 10SM FEW060 24/21 A2984 RMK AO2A SLP111 T02440213 53007 $
RODN 160756Z 34008KT 10SM FEW150 26/21 A2984 RMK AO2A SLP110 T02580212 $
RODN 160656Z 34007KT 10SM SCT100 26/21 A2983 RMK AO2A SLP107 T02640214 $
RODN 160556Z 35007KT 10SM SCT070 27/21 A2982 RMK AO2A SLP103 T02720207 $
RODN 160456Z 33007KT 10SM FEW030 SCT120 27/22 A2983 RMK AO2A SLP107 T02650219 $